sensor_id;sensor_type;location;lat;lon;timestamp;pressure;altitude;pressure_sealevel;temperature;humidity
55424;BME280;41294;42.666;23.350;2024-02-23T00:01:46;94637.22;;;7.66;74.03
55424;BME280;41294;42.666;23.350;2024-02-23T00:04:12;94632.88;;;7.72;74.04
55424;BME280;41294;42.666;23.350;2024-02-23T00:06:38;94620.09;;;7.74;73.69
55424;BME280;41294;42.666;23.350;2024-02-23T00:09:03;94629.75;;;7.77;73.47
55424;BME280;41294;42.666;23.350;2024-02-23T00:11:29;94626.94;;;7.72;73.72
55424;BME280;41294;42.666;23.350;2024-02-23T00:13:55;94633.75;;;7.69;74.13
55424;BME280;41294;42.666;23.350;2024-02-23T00:16:21;94626.31;;;7.68;74.20
55424;BME280;41294;42.666;23.350;2024-02-23T00:18:46;94632.16;;;7.72;74.41
55424;BME280;41294;42.666;23.350;2024-02-23T00:21:12;94627.94;;;7.53;74.49
55424;BME280;41294;42.666;23.350;2024-02-23T00:23:37;94627.69;;;7.60;74.62
55424;BME280;41294;42.666;23.350;2024-02-23T00:26:03;94640.09;;;7.59;74.18
55424;BME280;41294;42.666;23.350;2024-02-23T00:28:28;94638.00;;;7.54;74.60
55424;BME280;41294;42.666;23.350;2024-02-23T00:30:54;94608.50;;;7.41;75.10
55424;BME280;41294;42.666;23.350;2024-02-23T00:33:19;94623.06;;;7.09;76.29
55424;BME280;41294;42.666;23.350;2024-02-23T00:35:45;94630.56;;;7.19;76.18
55424;BME280;41294;42.666;23.350;2024-02-23T00:38:10;94605.69;;;7.36;76.01
55424;BME280;41294;42.666;23.350;2024-02-23T00:40:36;94615.94;;;7.43;75.04
55424;BME280;41294;42.666;23.350;2024-02-23T00:43:02;94625.88;;;7.48;75.17
55424;BME280;41294;42.666;23.350;2024-02-23T00:45:28;94621.13;;;7.55;75.48
55424;BME280;41294;42.666;23.350;2024-02-23T00:47:54;94604.31;;;7.44;76.42
55424;BME280;41294;42.666;23.350;2024-02-23T00:50:19;94598.16;;;7.38;76.45
55424;BME280;41294;42.666;23.350;2024-02-23T00:52:45;94592.09;;;7.41;76.31
55424;BME280;41294;42.666;23.350;2024-02-23T00:55:10;94594.16;;;7.46;76.18
55424;BME280;41294;42.666;23.350;2024-02-23T00:57:36;94599.56;;;7.51;75.96
55424;BME280;41294;42.666;23.350;2024-02-23T01:00:04;94598.50;;;7.28;76.41
55424;BME280;41294;42.666;23.350;2024-02-23T01:02:31;94588.53;;;7.35;75.91
55424;BME280;41294;42.666;23.350;2024-02-23T01:04:57;94598.94;;;7.47;75.89
55424;BME280;41294;42.666;23.350;2024-02-23T01:07:24;94588.34;;;7.51;75.70
55424;BME280;41294;42.666;23.350;2024-02-23T01:09:50;94591.09;;;7.47;75.65
55424;BME280;41294;42.666;23.350;2024-02-23T01:12:16;94600.84;;;7.47;76.34
55424;BME280;41294;42.666;23.350;2024-02-23T01:14:41;94587.56;;;7.41;76.09
55424;BME280;41294;42.666;23.350;2024-02-23T01:17:07;94587.72;;;7.26;76.33
55424;BME280;41294;42.666;23.350;2024-02-23T01:19:32;94582.22;;;7.45;76.27
55424;BME280;41294;42.666;23.350;2024-02-23T01:21:58;94584.59;;;7.52;76.25
55424;BME280;41294;42.666;23.350;2024-02-23T01:24:26;94589.16;;;7.39;76.46
55424;BME280;41294;42.666;23.350;2024-02-23T01:26:55;94584.03;;;7.35;76.86
55424;BME280;41294;42.666;23.350;2024-02-23T01:29:22;94583.53;;;7.28;77.31
55424;BME280;41294;42.666;23.350;2024-02-23T01:31:48;94580.91;;;7.28;77.74
55424;BME280;41294;42.666;23.350;2024-02-23T01:34:14;94576.75;;;7.18;77.34
55424;BME280;41294;42.666;23.350;2024-02-23T01:36:40;94571.06;;;7.32;76.87
55424;BME280;41294;42.666;23.350;2024-02-23T01:39:05;94570.63;;;7.33;77.10
55424;BME280;41294;42.666;23.350;2024-02-23T01:41:32;94567.97;;;7.12;78.56
55424;BME280;41294;42.666;23.350;2024-02-23T01:43:57;94562.44;;;7.10;78.77
55424;BME280;41294;42.666;23.350;2024-02-23T01:46:23;94561.53;;;7.04;78.99
55424;BME280;41294;42.666;23.350;2024-02-23T01:48:49;94567.47;;;7.05;78.96
55424;BME280;41294;42.666;23.350;2024-02-23T01:51:14;94564.75;;;7.08;79.09
55424;BME280;41294;42.666;23.350;2024-02-23T01:53:40;94568.06;;;7.21;78.44
55424;BME280;41294;42.666;23.350;2024-02-23T01:56:06;94560.63;;;7.20;78.44
55424;BME280;41294;42.666;23.350;2024-02-23T01:58:33;94557.16;;;7.23;78.28
55424;BME280;41294;42.666;23.350;2024-02-23T02:01:00;94552.59;;;7.14;78.28
55424;BME280;41294;42.666;23.350;2024-02-23T02:03:26;94550.19;;;7.07;78.16
55424;BME280;41294;42.666;23.350;2024-02-23T02:05:52;94544.69;;;7.05;78.81
55424;BME280;41294;42.666;23.350;2024-02-23T02:08:20;94536.91;;;7.14;78.39
55424;BME280;41294;42.666;23.350;2024-02-23T02:10:45;94548.91;;;7.12;78.58
55424;BME280;41294;42.666;23.350;2024-02-23T02:13:12;94536.03;;;7.17;78.56
55424;BME280;41294;42.666;23.350;2024-02-23T02:15:38;94539.44;;;7.05;79.64
55424;BME280;41294;42.666;23.350;2024-02-23T02:18:04;94551.19;;;7.01;79.71
55424;BME280;41294;42.666;23.350;2024-02-23T02:20:32;94542.47;;;7.04;79.57
55424;BME280;41294;42.666;23.350;2024-02-23T02:22:58;94544.56;;;7.09;78.92
55424;BME280;41294;42.666;23.350;2024-02-23T02:25:24;94537.09;;;7.07;78.68
55424;BME280;41294;42.666;23.350;2024-02-23T02:27:49;94544.56;;;7.09;78.27
55424;BME280;41294;42.666;23.350;2024-02-23T02:30:15;94552.81;;;7.07;78.77
55424;BME280;41294;42.666;23.350;2024-02-23T02:32:41;94548.44;;;7.04;79.46
55424;BME280;41294;42.666;23.350;2024-02-23T02:35:06;94546.44;;;7.08;79.33
55424;BME280;41294;42.666;23.350;2024-02-23T02:37:32;94537.22;;;7.04;79.29
55424;BME280;41294;42.666;23.350;2024-02-23T02:39:57;94544.88;;;6.98;79.50
55424;BME280;41294;42.666;23.350;2024-02-23T02:42:23;94549.59;;;7.03;79.58
55424;BME280;41294;42.666;23.350;2024-02-23T02:44:48;94551.22;;;6.88;80.22
55424;BME280;41294;42.666;23.350;2024-02-23T02:47:14;94552.13;;;6.94;80.02
55424;BME280;41294;42.666;23.350;2024-02-23T02:49:40;94557.97;;;6.98;79.55
55424;BME280;41294;42.666;23.350;2024-02-23T02:52:05;94549.72;;;7.00;80.11
55424;BME280;41294;42.666;23.350;2024-02-23T02:54:31;94543.66;;;6.90;79.87
55424;BME280;41294;42.666;23.350;2024-02-23T02:56:57;94548.47;;;6.92;79.77
55424;BME280;41294;42.666;23.350;2024-02-23T02:59:23;94553.34;;;7.02;79.17
55424;BME280;41294;42.666;23.350;2024-02-23T03:01:48;94548.03;;;6.93;79.95
55424;BME280;41294;42.666;23.350;2024-02-23T03:04:14;94550.03;;;6.89;80.14
55424;BME280;41294;42.666;23.350;2024-02-23T03:06:40;94557.78;;;6.80;80.22
55424;BME280;41294;42.666;23.350;2024-02-23T03:09:05;94550.50;;;6.63;80.98
55424;BME280;41294;42.666;23.350;2024-02-23T03:11:32;94547.78;;;6.66;80.77
55424;BME280;41294;42.666;23.350;2024-02-23T03:13:57;94537.09;;;6.73;80.87
55424;BME280;41294;42.666;23.350;2024-02-23T03:16:23;94549.34;;;6.76;81.03
55424;BME280;41294;42.666;23.350;2024-02-23T03:18:51;94556.28;;;6.46;82.27
55424;BME280;41294;42.666;23.350;2024-02-23T03:21:17;94562.25;;;6.46;82.33
55424;BME280;41294;42.666;23.350;2024-02-23T03:23:42;94558.38;;;6.63;81.51
55424;BME280;41294;42.666;23.350;2024-02-23T03:26:08;94555.72;;;6.75;81.23
55424;BME280;41294;42.666;23.350;2024-02-23T03:28:33;94555.72;;;6.75;81.21
55424;BME280;41294;42.666;23.350;2024-02-23T03:31:02;94552.94;;;6.57;81.29
55424;BME280;41294;42.666;23.350;2024-02-23T03:33:27;94552.31;;;6.29;82.83
55424;BME280;41294;42.666;23.350;2024-02-23T03:35:53;94559.44;;;6.41;82.25
55424;BME280;41294;42.666;23.350;2024-02-23T03:38:18;94550.44;;;6.42;82.45
55424;BME280;41294;42.666;23.350;2024-02-23T03:40:44;94553.16;;;6.51;81.96
55424;BME280;41294;42.666;23.350;2024-02-23T03:43:10;94553.88;;;6.39;83.35
55424;BME280;41294;42.666;23.350;2024-02-23T03:45:35;94552.63;;;6.43;83.62
55424;BME280;41294;42.666;23.350;2024-02-23T03:48:02;94540.69;;;6.54;82.72
55424;BME280;41294;42.666;23.350;2024-02-23T03:50:28;94546.44;;;6.50;82.84
55424;BME280;41294;42.666;23.350;2024-02-23T03:52:54;94563.72;;;6.35;83.75
55424;BME280;41294;42.666;23.350;2024-02-23T03:55:19;94549.50;;;6.48;83.15
55424;BME280;41294;42.666;23.350;2024-02-23T03:57:45;94567.69;;;6.52;83.01
55424;BME280;41294;42.666;23.350;2024-02-23T04:00:11;94553.47;;;6.40;83.63
55424;BME280;41294;42.666;23.350;2024-02-23T04:02:38;94557.97;;;6.27;84.32
55424;BME280;41294;42.666;23.350;2024-02-23T04:05:04;94553.47;;;6.40;83.99
55424;BME280;41294;42.666;23.350;2024-02-23T04:07:29;94549.91;;;6.34;84.28
55424;BME280;41294;42.666;23.350;2024-02-23T04:09:55;94562.47;;;6.39;84.35
55424;BME280;41294;42.666;23.350;2024-02-23T04:12:21;94554.41;;;6.34;84.43
55424;BME280;41294;42.666;23.350;2024-02-23T04:14:47;94563.91;;;6.28;84.53
55424;BME280;41294;42.666;23.350;2024-02-23T04:17:12;94565.47;;;6.38;84.29
55424;BME280;41294;42.666;23.350;2024-02-23T04:19:40;94573.31;;;6.25;84.77
55424;BME280;41294;42.666;23.350;2024-02-23T04:22:06;94558.06;;;6.24;84.75
55424;BME280;41294;42.666;23.350;2024-02-23T04:24:38;94578.97;;;6.11;85.33
55424;BME280;41294;42.666;23.350;2024-02-23T04:27:06;94571.97;;;6.21;85.05
55424;BME280;41294;42.666;23.350;2024-02-23T04:29:33;94555.66;;;6.29;84.97
55424;BME280;41294;42.666;23.350;2024-02-23T04:32:02;94552.41;;;6.25;85.01
55424;BME280;41294;42.666;23.350;2024-02-23T04:34:28;94557.13;;;6.18;85.36
55424;BME280;41294;42.666;23.350;2024-02-23T04:36:54;94566.34;;;6.35;84.44
55424;BME280;41294;42.666;23.350;2024-02-23T04:39:20;94569.78;;;6.32;84.43
55424;BME280;41294;42.666;23.350;2024-02-23T04:41:46;94567.88;;;6.32;84.66
55424;BME280;41294;42.666;23.350;2024-02-23T04:44:11;94562.03;;;6.28;84.08
55424;BME280;41294;42.666;23.350;2024-02-23T04:46:37;94579.59;;;6.15;85.78
55424;BME280;41294;42.666;23.350;2024-02-23T04:49:02;94583.56;;;6.20;85.08
55424;BME280;41294;42.666;23.350;2024-02-23T04:51:28;94574.19;;;6.22;85.07
55424;BME280;41294;42.666;23.350;2024-02-23T04:53:53;94581.06;;;6.29;84.47
55424;BME280;41294;42.666;23.350;2024-02-23T04:56:19;94579.50;;;6.31;84.50
55424;BME280;41294;42.666;23.350;2024-02-23T04:58:45;94584.72;;;6.19;84.71
55424;BME280;41294;42.666;23.350;2024-02-23T05:01:12;94568.91;;;5.97;85.58
55424;BME280;41294;42.666;23.350;2024-02-23T05:03:37;94579.28;;;6.01;85.84
55424;BME280;41294;42.666;23.350;2024-02-23T05:06:03;94582.91;;;5.91;86.79
55424;BME280;41294;42.666;23.350;2024-02-23T05:08:29;94585.91;;;5.89;86.58
55424;BME280;41294;42.666;23.350;2024-02-23T05:10:58;94595.66;;;5.89;87.07
55424;BME280;41294;42.666;23.350;2024-02-23T05:13:24;94578.72;;;5.93;86.08
55424;BME280;41294;42.666;23.350;2024-02-23T05:15:50;94564.53;;;6.07;85.39
55424;BME280;41294;42.666;23.350;2024-02-23T05:18:15;94582.72;;;6.10;85.17
55424;BME280;41294;42.666;23.350;2024-02-23T05:20:41;94597.16;;;6.15;85.44
55424;BME280;41294;42.666;23.350;2024-02-23T05:23:06;94601.03;;;6.23;84.51
55424;BME280;41294;42.666;23.350;2024-02-23T05:25:32;94610.53;;;6.17;84.48
55424;BME280;41294;42.666;23.350;2024-02-23T05:27:58;94606.16;;;6.26;84.96
55424;BME280;41294;42.666;23.350;2024-02-23T05:30:23;94604.47;;;6.82;83.38
55424;BME280;41294;42.666;23.350;2024-02-23T05:32:49;94592.22;;;7.59;79.43
55424;BME280;41294;42.666;23.350;2024-02-23T05:35:15;94608.72;;;8.41;75.19
55424;BME280;41294;42.666;23.350;2024-02-23T05:37:41;94614.78;;;8.99;73.04
55424;BME280;41294;42.666;23.350;2024-02-23T05:40:07;94603.75;;;9.67;70.69
55424;BME280;41294;42.666;23.350;2024-02-23T05:42:36;94605.66;;;10.43;67.42
55424;BME280;41294;42.666;23.350;2024-02-23T05:45:02;94606.03;;;10.18;66.20
55424;BME280;41294;42.666;23.350;2024-02-23T05:47:32;94605.56;;;10.70;64.95
55424;BME280;41294;42.666;23.350;2024-02-23T05:49:58;94614.50;;;10.96;64.26
55424;BME280;41294;42.666;23.350;2024-02-23T05:52:23;94617.69;;;11.09;61.94
55424;BME280;41294;42.666;23.350;2024-02-23T05:54:49;94626.97;;;11.65;60.85
55424;BME280;41294;42.666;23.350;2024-02-23T05:57:14;94618.78;;;11.63;59.62
55424;BME280;41294;42.666;23.350;2024-02-23T05:59:39;94610.06;;;12.10;58.70
55424;BME280;41294;42.666;23.350;2024-02-23T06:02:05;94622.53;;;12.24;57.08
55424;BME280;41294;42.666;23.350;2024-02-23T06:04:31;94624.63;;;11.67;59.94
55424;BME280;41294;42.666;23.350;2024-02-23T06:06:56;94624.84;;;11.32;59.99
55424;BME280;41294;42.666;23.350;2024-02-23T06:09:22;94622.16;;;12.30;58.59
55424;BME280;41294;42.666;23.350;2024-02-23T06:11:47;94633.19;;;13.07;54.40
55424;BME280;41294;42.666;23.350;2024-02-23T06:14:13;94632.13;;;12.84;54.42
55424;BME280;41294;42.666;23.350;2024-02-23T06:16:39;94635.50;;;13.73;53.04
55424;BME280;41294;42.666;23.350;2024-02-23T06:19:05;94635.47;;;14.13;50.66
55424;BME280;41294;42.666;23.350;2024-02-23T06:21:31;94640.56;;;14.42;50.10
55424;BME280;41294;42.666;23.350;2024-02-23T06:23:57;94654.16;;;14.85;49.56
55424;BME280;41294;42.666;23.350;2024-02-23T06:26:23;94654.50;;;15.04;48.15
55424;BME280;41294;42.666;23.350;2024-02-23T06:28:48;94639.66;;;13.40;50.33
55424;BME280;41294;42.666;23.350;2024-02-23T06:31:14;94639.22;;;10.66;58.42
55424;BME280;41294;42.666;23.350;2024-02-23T06:33:40;94637.09;;;10.88;60.97
55424;BME280;41294;42.666;23.350;2024-02-23T06:36:06;94643.63;;;12.38;57.06
55424;BME280;41294;42.666;23.350;2024-02-23T06:38:33;94646.44;;;13.26;52.72
55424;BME280;41294;42.666;23.350;2024-02-23T06:40:58;94644.88;;;13.34;52.26
55424;BME280;41294;42.666;23.350;2024-02-23T06:43:24;94631.22;;;11.86;56.14
55424;BME280;41294;42.666;23.350;2024-02-23T06:45:49;94637.56;;;13.10;54.17
55424;BME280;41294;42.666;23.350;2024-02-23T06:48:15;94643.19;;;13.96;51.09
55424;BME280;41294;42.666;23.350;2024-02-23T06:50:40;94643.97;;;14.78;48.77
55424;BME280;41294;42.666;23.350;2024-02-23T06:53:06;94634.28;;;15.06;47.29
55424;BME280;41294;42.666;23.350;2024-02-23T06:55:33;94645.97;;;13.88;49.29
55424;BME280;41294;42.666;23.350;2024-02-23T06:57:59;94655.34;;;14.84;48.19
55424;BME280;41294;42.666;23.350;2024-02-23T07:00:25;94641.81;;;15.19;46.79
55424;BME280;41294;42.666;23.350;2024-02-23T07:02:50;94638.78;;;13.28;50.73
55424;BME280;41294;42.666;23.350;2024-02-23T07:05:16;94633.19;;;13.41;51.57
55424;BME280;41294;42.666;23.350;2024-02-23T07:07:42;94647.25;;;14.68;48.93
55424;BME280;41294;42.666;23.350;2024-02-23T07:10:08;94656.66;;;15.83;45.78
55424;BME280;41294;42.666;23.350;2024-02-23T07:12:33;94654.06;;;15.42;44.95
55424;BME280;41294;42.666;23.350;2024-02-23T07:14:59;94649.63;;;12.82;51.50
55424;BME280;41294;42.666;23.350;2024-02-23T07:17:24;94651.41;;;11.89;54.73
55424;BME280;41294;42.666;23.350;2024-02-23T07:19:50;94645.81;;;11.49;56.74
55424;BME280;41294;42.666;23.350;2024-02-23T07:22:16;94629.69;;;11.10;57.71
55424;BME280;41294;42.666;23.350;2024-02-23T07:24:45;94624.00;;;10.70;60.07
55424;BME280;41294;42.666;23.350;2024-02-23T07:27:11;94623.25;;;12.38;56.13
55424;BME280;41294;42.666;23.350;2024-02-23T07:29:36;94639.91;;;14.27;50.91
55424;BME280;41294;42.666;23.350;2024-02-23T07:32:02;94658.34;;;15.34;47.13
55424;BME280;41294;42.666;23.350;2024-02-23T07:34:28;94643.53;;;15.22;47.52
55424;BME280;41294;42.666;23.350;2024-02-23T07:36:53;94612.00;;;14.57;47.72
55424;BME280;41294;42.666;23.350;2024-02-23T07:39:20;94606.34;;;14.44;49.23
55424;BME280;41294;42.666;23.350;2024-02-23T07:41:45;94619.69;;;14.24;50.06
55424;BME280;41294;42.666;23.350;2024-02-23T07:44:11;94640.63;;;13.82;51.19
55424;BME280;41294;42.666;23.350;2024-02-23T07:46:37;94647.84;;;12.59;56.68
55424;BME280;41294;42.666;23.350;2024-02-23T07:49:04;94650.03;;;14.84;51.17
55424;BME280;41294;42.666;23.350;2024-02-23T07:51:29;94639.50;;;15.79;47.90
55424;BME280;41294;42.666;23.350;2024-02-23T07:53:56;94637.97;;;15.56;47.86
55424;BME280;41294;42.666;23.350;2024-02-23T07:56:21;94650.28;;;14.56;49.48
55424;BME280;41294;42.666;23.350;2024-02-23T07:58:47;94623.03;;;13.99;52.44
55424;BME280;41294;42.666;23.350;2024-02-23T08:01:14;94621.31;;;14.47;51.68
55424;BME280;41294;42.666;23.350;2024-02-23T08:03:40;94620.78;;;16.10;48.49
55424;BME280;41294;42.666;23.350;2024-02-23T08:06:05;94627.06;;;17.27;45.87
55424;BME280;41294;42.666;23.350;2024-02-23T08:08:31;94633.91;;;18.71;42.81
55424;BME280;41294;42.666;23.350;2024-02-23T08:11:02;94621.56;;;17.14;43.51
55424;BME280;41294;42.666;23.350;2024-02-23T08:13:29;94626.66;;;16.36;46.33
55424;BME280;41294;42.666;23.350;2024-02-23T08:15:55;94624.13;;;14.99;49.21
55424;BME280;41294;42.666;23.350;2024-02-23T08:18:20;94622.66;;;15.93;48.74
55424;BME280;41294;42.666;23.350;2024-02-23T08:20:48;94614.50;;;17.38;45.53
55424;BME280;41294;42.666;23.350;2024-02-23T08:23:14;94604.69;;;18.60;42.81
55424;BME280;41294;42.666;23.350;2024-02-23T08:25:39;94607.50;;;18.97;41.95
55424;BME280;41294;42.666;23.350;2024-02-23T08:28:05;94609.50;;;18.91;40.89
55424;BME280;41294;42.666;23.350;2024-02-23T08:30:32;94620.09;;;19.01;40.83
55424;BME280;41294;42.666;23.350;2024-02-23T08:32:57;94621.72;;;17.49;44.02
55424;BME280;41294;42.666;23.350;2024-02-23T08:35:23;94611.50;;;17.69;44.16
55424;BME280;41294;42.666;23.350;2024-02-23T08:37:48;94606.56;;;18.35;42.64
55424;BME280;41294;42.666;23.350;2024-02-23T08:40:14;94612.34;;;18.39;41.90
55424;BME280;41294;42.666;23.350;2024-02-23T08:42:39;94614.53;;;17.06;44.84
55424;BME280;41294;42.666;23.350;2024-02-23T08:45:06;94624.56;;;18.18;43.28
55424;BME280;41294;42.666;23.350;2024-02-23T08:47:31;94621.69;;;18.11;42.27
55424;BME280;41294;42.666;23.350;2024-02-23T08:49:59;94621.91;;;18.18;42.34
55424;BME280;41294;42.666;23.350;2024-02-23T08:52:24;94617.47;;;16.58;44.67
55424;BME280;41294;42.666;23.350;2024-02-23T08:54:52;94632.44;;;15.60;46.90
55424;BME280;41294;42.666;23.350;2024-02-23T08:57:17;94613.13;;;14.76;49.73
55424;BME280;41294;42.666;23.350;2024-02-23T08:59:45;94621.06;;;15.48;48.31
55424;BME280;41294;42.666;23.350;2024-02-23T09:02:11;94625.13;;;16.13;46.81
55424;BME280;41294;42.666;23.350;2024-02-23T09:04:37;94614.59;;;16.73;45.71
55424;BME280;41294;42.666;23.350;2024-02-23T09:07:02;94616.56;;;15.76;46.40
55424;BME280;41294;42.666;23.350;2024-02-23T09:09:28;94610.06;;;15.24;48.06
55424;BME280;41294;42.666;23.350;2024-02-23T09:11:53;94617.69;;;15.53;47.31
55424;BME280;41294;42.666;23.350;2024-02-23T09:14:19;94615.41;;;14.93;48.77
55424;BME280;41294;42.666;23.350;2024-02-23T09:16:44;94610.84;;;15.30;48.32
55424;BME280;41294;42.666;23.350;2024-02-23T09:19:12;94613.88;;;15.65;47.63
55424;BME280;41294;42.666;23.350;2024-02-23T09:21:38;94608.41;;;15.27;48.31
55424;BME280;41294;42.666;23.350;2024-02-23T09:24:04;94612.00;;;15.24;48.38
55424;BME280;41294;42.666;23.350;2024-02-23T09:26:30;94608.97;;;15.00;49.26
55424;BME280;41294;42.666;23.350;2024-02-23T09:28:56;94607.94;;;15.28;48.85
55424;BME280;41294;42.666;23.350;2024-02-23T09:31:21;94607.78;;;15.48;46.65
55424;BME280;41294;42.666;23.350;2024-02-23T09:33:47;94613.31;;;15.50;47.28
55424;BME280;41294;42.666;23.350;2024-02-23T09:36:14;94602.06;;;15.19;46.42
55424;BME280;41294;42.666;23.350;2024-02-23T09:38:40;94599.84;;;16.61;44.73
55424;BME280;41294;42.666;23.350;2024-02-23T09:41:14;94599.84;;;18.58;41.23
55424;BME280;41294;42.666;23.350;2024-02-23T09:43:42;94614.03;;;17.34;40.97
55424;BME280;41294;42.666;23.350;2024-02-23T09:46:09;94611.81;;;16.07;43.63
55424;BME280;41294;42.666;23.350;2024-02-23T09:48:35;94604.19;;;16.64;43.14
55424;BME280;41294;42.666;23.350;2024-02-23T09:51:01;94600.75;;;17.13;42.49
55424;BME280;41294;42.666;23.350;2024-02-23T09:53:27;94600.34;;;17.71;40.80
55424;BME280;41294;42.666;23.350;2024-02-23T09:55:53;94591.78;;;17.89;40.48
55424;BME280;41294;42.666;23.350;2024-02-23T09:58:19;94593.75;;;17.83;40.92
55424;BME280;41294;42.666;23.350;2024-02-23T10:00:47;94600.28;;;19.21;38.94
55424;BME280;41294;42.666;23.350;2024-02-23T10:03:12;94590.06;;;19.25;38.08
55424;BME280;41294;42.666;23.350;2024-02-23T10:05:38;94580.22;;;19.38;37.83
55424;BME280;41294;42.666;23.350;2024-02-23T10:08:05;94584.84;;;19.08;37.21
55424;BME280;41294;42.666;23.350;2024-02-23T10:10:33;94576.28;;;17.36;40.27
55424;BME280;41294;42.666;23.350;2024-02-23T10:12:59;94570.81;;;17.69;40.47
55424;BME280;41294;42.666;23.350;2024-02-23T10:15:25;94569.84;;;18.12;39.13
55424;BME280;41294;42.666;23.350;2024-02-23T10:17:51;94575.44;;;18.49;39.42
55424;BME280;41294;42.666;23.350;2024-02-23T10:20:19;94575.13;;;19.77;37.20
55424;BME280;41294;42.666;23.350;2024-02-23T10:22:45;94577.59;;;20.74;35.87
55424;BME280;41294;42.666;23.350;2024-02-23T10:25:10;94575.88;;;18.53;37.81
55424;BME280;41294;42.666;23.350;2024-02-23T10:27:36;94569.81;;;16.99;40.85
55424;BME280;41294;42.666;23.350;2024-02-23T10:30:02;94560.81;;;17.18;40.83
55424;BME280;41294;42.666;23.350;2024-02-23T10:32:29;94554.53;;;18.23;39.16
55424;BME280;41294;42.666;23.350;2024-02-23T10:35:00;94554.00;;;18.89;37.94
55424;BME280;41294;42.666;23.350;2024-02-23T10:37:26;94547.75;;;18.22;38.67
55424;BME280;41294;42.666;23.350;2024-02-23T10:39:54;94555.50;;;17.29;39.99
55424;BME280;41294;42.666;23.350;2024-02-23T10:42:23;94542.47;;;17.09;40.34
55424;BME280;41294;42.666;23.350;2024-02-23T10:44:50;94546.09;;;17.12;40.41
55424;BME280;41294;42.666;23.350;2024-02-23T10:47:16;94533.44;;;17.39;40.36
55424;BME280;41294;42.666;23.350;2024-02-23T10:49:44;94530.44;;;17.59;39.39
55424;BME280;41294;42.666;23.350;2024-02-23T10:52:11;94528.56;;;17.49;40.06
55424;BME280;41294;42.666;23.350;2024-02-23T10:54:39;94542.81;;;18.37;37.90
55424;BME280;41294;42.666;23.350;2024-02-23T10:57:06;94527.59;;;16.57;40.22
55424;BME280;41294;42.666;23.350;2024-02-23T10:59:32;94515.31;;;17.38;39.65
55424;BME280;41294;42.666;23.350;2024-02-23T11:01:59;94507.66;;;17.69;39.42
55424;BME280;41294;42.666;23.350;2024-02-23T11:04:27;94498.78;;;17.56;39.29
55424;BME280;41294;42.666;23.350;2024-02-23T11:06:56;94498.44;;;17.70;38.99
55424;BME280;41294;42.666;23.350;2024-02-23T11:09:31;94497.88;;;18.17;37.29
55424;BME280;41294;42.666;23.350;2024-02-23T11:11:58;94497.28;;;18.35;37.19
55424;BME280;41294;42.666;23.350;2024-02-23T11:14:35;94494.16;;;17.97;37.59
55424;BME280;41294;42.666;23.350;2024-02-23T11:17:02;94499.97;;;18.83;36.62
55424;BME280;41294;42.666;23.350;2024-02-23T11:19:35;94481.53;;;19.83;35.98
55424;BME280;41294;42.666;23.350;2024-02-23T11:22:01;94490.97;;;20.20;34.56
55424;BME280;41294;42.666;23.350;2024-02-23T11:24:31;94501.69;;;19.83;34.73
55424;BME280;41294;42.666;23.350;2024-02-23T11:27:01;94491.59;;;20.26;34.31
55424;BME280;41294;42.666;23.350;2024-02-23T11:29:33;94488.97;;;19.53;34.06
55424;BME280;41294;42.666;23.350;2024-02-23T11:32:00;94471.22;;;19.37;35.12
55424;BME280;41294;42.666;23.350;2024-02-23T11:34:29;94469.72;;;19.23;35.41
55424;BME280;41294;42.666;23.350;2024-02-23T11:36:55;94483.13;;;19.17;35.57
55424;BME280;41294;42.666;23.350;2024-02-23T11:39:22;94475.31;;;19.93;34.61
55424;BME280;41294;42.666;23.350;2024-02-23T11:41:50;94469.81;;;20.35;33.96
55424;BME280;41294;42.666;23.350;2024-02-23T11:44:16;94473.53;;;20.58;33.22
55424;BME280;41294;42.666;23.350;2024-02-23T11:46:43;94471.34;;;20.31;31.57
55424;BME280;41294;42.666;23.350;2024-02-23T11:49:10;94484.06;;;19.20;33.58
55424;BME280;41294;42.666;23.350;2024-02-23T11:51:36;94479.41;;;19.26;34.63
55424;BME280;41294;42.666;23.350;2024-02-23T11:54:01;94467.31;;;18.96;34.00
55424;BME280;41294;42.666;23.350;2024-02-23T11:56:29;94464.53;;;18.64;34.61
55424;BME280;41294;42.666;23.350;2024-02-23T11:58:55;94460.84;;;18.67;35.06
55424;BME280;41294;42.666;23.350;2024-02-23T12:01:21;94457.06;;;18.33;35.34
55424;BME280;41294;42.666;23.350;2024-02-23T12:03:46;94462.13;;;18.61;35.46
55424;BME280;41294;42.666;23.350;2024-02-23T12:06:14;94460.75;;;18.54;34.55
55424;BME280;41294;42.666;23.350;2024-02-23T12:08:41;94455.25;;;18.47;35.11
55424;BME280;41294;42.666;23.350;2024-02-23T12:11:08;94440.56;;;18.35;35.55
55424;BME280;41294;42.666;23.350;2024-02-23T12:13:38;94457.69;;;18.15;35.84
55424;BME280;41294;42.666;23.350;2024-02-23T12:16:04;94457.75;;;18.05;35.99
55424;BME280;41294;42.666;23.350;2024-02-23T12:18:33;94446.22;;;17.62;35.61
55424;BME280;41294;42.666;23.350;2024-02-23T12:21:04;94446.41;;;17.69;35.47
55424;BME280;41294;42.666;23.350;2024-02-23T12:23:45;94445.78;;;17.58;35.84
55424;BME280;41294;42.666;23.350;2024-02-23T12:26:13;94436.00;;;17.31;35.60
55424;BME280;41294;42.666;23.350;2024-02-23T12:28:43;94421.22;;;17.35;36.54
55424;BME280;41294;42.666;23.350;2024-02-23T12:31:09;94427.47;;;17.43;36.66
55424;BME280;41294;42.666;23.350;2024-02-23T12:33:36;94415.09;;;17.46;37.09
55424;BME280;41294;42.666;23.350;2024-02-23T12:36:04;94422.94;;;17.28;37.94
55424;BME280;41294;42.666;23.350;2024-02-23T12:38:30;94421.75;;;17.29;37.61
55424;BME280;41294;42.666;23.350;2024-02-23T12:40:56;94423.00;;;17.17;36.35
55424;BME280;41294;42.666;23.350;2024-02-23T12:43:21;94426.00;;;16.91;36.06
55424;BME280;41294;42.666;23.350;2024-02-23T12:45:49;94413.34;;;16.46;37.01
55424;BME280;41294;42.666;23.350;2024-02-23T12:48:16;94412.66;;;16.35;37.44
55424;BME280;41294;42.666;23.350;2024-02-23T12:50:42;94397.09;;;16.71;37.49